Prevelis — SYDL — position and weather

sailwx.info

Track history (hours):
 
Tides and Currents Weather Stations Pressure Air Temp Water Temp Dewpoint Dewpoint Depression Visibility Wind Speed Wind Dir Waves Ship Positions

Prevelis

Last reported at 2016-May-06 10:33 UTC. Time now 2016-May-06 11:13 UTC.
Position N 37°57' E 023°38'.

Length 143 m; draft 5.5 m.

Type: Passenger vessel. MMSI: 239297000.

Date/timePositionNaut miles runAvg speedWind from/ knotsBaromVisibWave heightAir tempDewpointWater temp
2016-May-06 10:33N 37°57' E 023°38'0 0.0
2016-May-06 09:34N 37°57' E 023°38'0 0.0
2016-May-06 08:34N 37°57' E 023°38'0 0.0
2016-May-06 07:33N 37°57' E 023°38'0 0.0
2016-May-06 06:34N 37°57' E 023°38'0 0.0
2016-May-06 05:33N 37°57' E 023°38'0 0.0
2016-May-06 04:34N 37°57' E 023°38'0 0.0
2016-May-06 03:33N 37°57' E 023°38'9 9.1
2016-May-06 02:33N 37°48' E 023°42'1716.5
2016-May-06 01:33N 37°33' E 023°50'  
2016-May-03 20:17N 37°27' E 023°52'1317.6
2016-May-03 19:33N 37°38' E 023°43'1716.7
2016-May-03 18:33N 37°54' E 023°37'2 2.5
2016-May-03 17:33N 37°57' E 023°38'0 0.0
2016-May-03 16:33N 37°57' E 023°38'0 0.0
2016-May-03 15:33N 37°57' E 023°38'0 0.0
2016-May-03 14:33N 37°57' E 023°38'0 0.0
2016-May-03 13:33N 37°57' E 023°38'0 0.0
2016-May-03 12:33N 37°57' E 023°38'0 0.0
2016-May-03 11:33N 37°57' E 023°38'0 0.0
2016-May-03 10:33N 37°57' E 023°38'0 0.0
2016-May-03 09:33N 37°57' E 023°38'0 0.0
2016-May-03 08:33N 37°57' E 023°38'0 0.0
2016-May-03 07:33N 37°57' E 023°38'0 0.0
2016-May-03 06:33N 37°57' E 023°38'8 8.0
2016-May-03 05:34N 37°49' E 023°40'1717.1
2016-May-03 04:33N 37°33' E 023°49'194 8.8
2016-May-02 06:29N 35°29' E 026°54'  
2016-Apr-28 23:04N 36°37' E 024°49'5412.1
2016-Apr-28 18:34N 37°15' E 024°01'1716.9
2016-Apr-28 17:34N 37°30' E 023°50'1716.8
2016-Apr-28 16:34N 37°45' E 023°40'1211.9
2016-Apr-28 15:33N 37°57' E 023°38'0 0.0
2016-Apr-28 14:33N 37°57' E 023°38'0 0.0
2016-Apr-28 13:33N 37°57' E 023°38'0 0.0
2016-Apr-28 12:33N 37°57' E 023°38'0 0.0
2016-Apr-28 11:33N 37°57' E 023°38'0 0.0
2016-Apr-28 10:33N 37°57' E 023°38'0 0.0
2016-Apr-28 09:33N 37°57' E 023°38'0 0.0
2016-Apr-28 08:33N 37°57' E 023°38'0 0.0
2016-Apr-28 07:33N 37°57' E 023°38'0 0.0
2016-Apr-28 06:33N 37°57' E 023°38'0 0.0
2016-Apr-28 05:33N 37°57' E 023°38'0 0.0
2016-Apr-28 04:33N 37°57' E 023°38'0 0.0
2016-Apr-28 03:33N 37°57' E 023°38'3 3.4
2016-Apr-28 02:33N 37°53' E 023°38'1616.3
2016-Apr-28 01:33N 37°38' E 023°47'1717.0
2016-Apr-28 00:32N 37°23' E 023°57'  
Track history (hours):
 
Tides and Currents Weather Stations Pressure Air Temp Water Temp Dewpoint Dewpoint Depression Visibility Wind Speed Wind Dir Waves Ship Positions

Prevelis

Last reported at 2016-May-06 10:33 UTC. Time now 2016-May-06 11:13 UTC.
Position N 37°57' E 023°38'.

Length 143 m; draft 5.5 m.

Type: Passenger vessel. MMSI: 239297000.

Date/timePositionNaut miles runAvg speedWind from/ knotsBaromVisibWave heightAir tempDewpointWater temp
2016-May-06 10:33N 37°57' E 023°38'0 0.0
2016-May-06 09:34N 37°57' E 023°38'0 0.0
2016-May-06 08:34N 37°57' E 023°38'0 0.0
2016-May-06 07:33N 37°57' E 023°38'0 0.0
2016-May-06 06:34N 37°57' E 023°38'0 0.0
2016-May-06 05:33N 37°57' E 023°38'0 0.0
2016-May-06 04:34N 37°57' E 023°38'0 0.0
2016-May-06 03:33N 37°57' E 023°38'9 9.1
2016-May-06 02:33N 37°48' E 023°42'1716.5
2016-May-06 01:33N 37°33' E 023°50'  
2016-May-03 20:17N 37°27' E 023°52'1317.6
2016-May-03 19:33N 37°38' E 023°43'1716.7
2016-May-03 18:33N 37°54' E 023°37'2 2.5
2016-May-03 17:33N 37°57' E 023°38'0 0.0
2016-May-03 16:33N 37°57' E 023°38'0 0.0
2016-May-03 15:33N 37°57' E 023°38'0 0.0
2016-May-03 14:33N 37°57' E 023°38'0 0.0
2016-May-03 13:33N 37°57' E 023°38'0 0.0
2016-May-03 12:33N 37°57' E 023°38'0 0.0
2016-May-03 11:33N 37°57' E 023°38'0 0.0
2016-May-03 10:33N 37°57' E 023°38'0 0.0
2016-May-03 09:33N 37°57' E 023°38'0 0.0
2016-May-03 08:33N 37°57' E 023°38'0 0.0
2016-May-03 07:33N 37°57' E 023°38'0 0.0
2016-May-03 06:33N 37°57' E 023°38'8 8.0
2016-May-03 05:34N 37°49' E 023°40'1717.1
2016-May-03 04:33N 37°33' E 023°49'194 8.8
2016-May-02 06:29N 35°29' E 026°54'  
2016-Apr-28 23:04N 36°37' E 024°49'5412.1
2016-Apr-28 18:34N 37°15' E 024°01'1716.9
2016-Apr-28 17:34N 37°30' E 023°50'1716.8
2016-Apr-28 16:34N 37°45' E 023°40'1211.9
2016-Apr-28 15:33N 37°57' E 023°38'0 0.0
2016-Apr-28 14:33N 37°57' E 023°38'0 0.0
2016-Apr-28 13:33N 37°57' E 023°38'0 0.0
2016-Apr-28 12:33N 37°57' E 023°38'0 0.0
2016-Apr-28 11:33N 37°57' E 023°38'0 0.0
2016-Apr-28 10:33N 37°57' E 023°38'0 0.0
2016-Apr-28 09:33N 37°57' E 023°38'0 0.0
2016-Apr-28 08:33N 37°57' E 023°38'0 0.0
2016-Apr-28 07:33N 37°57' E 023°38'0 0.0
2016-Apr-28 06:33N 37°57' E 023°38'0 0.0
2016-Apr-28 05:33N 37°57' E 023°38'0 0.0
2016-Apr-28 04:33N 37°57' E 023°38'0 0.0
2016-Apr-28 03:33N 37°57' E 023°38'3 3.4
2016-Apr-28 02:33N 37°53' E 023°38'1616.3
2016-Apr-28 01:33N 37°38' E 023°47'1717.0
2016-Apr-28 00:32N 37°23' E 023°57'  

Dump ship's entire track history